createdAt,value
2019-03-17T00:01:58.914Z,74.12
2019-03-17T00:08:01.306Z,73.94
2019-03-17T00:10:54.083Z,73.71
2019-03-17T00:13:45.663Z,73.75
2019-03-17T00:23:10.261Z,73.83
2019-03-17T00:26:21.327Z,74.06
2019-03-17T00:33:22.843Z,74.32
2019-03-17T00:36:23.589Z,74.51
2019-03-17T00:39:26.332Z,74.80
2019-03-17T00:42:09.447Z,74.40
2019-03-17T00:44:45.524Z,74.83
2019-03-17T00:47:55.802Z,74.30
2019-03-17T00:50:48.867Z,73.57
2019-03-17T00:53:56.826Z,73.29
2019-03-17T00:56:48.718Z,72.05
2019-03-17T00:59:26.739Z,72.28
2019-03-17T01:02:18.810Z,72.09
2019-03-17T01:05:18.736Z,72.14
2019-03-17T01:08:06.242Z,72.11
2019-03-17T01:10:48.712Z,73.16
2019-03-17T01:13:47.917Z,73.22
2019-03-17T08:27:23.967Z,58.47
2019-03-17T08:29:54.784Z,58.63
2019-03-17T08:32:25.543Z,57.87
2019-03-17T08:34:56.904Z,56.73
2019-03-17T08:37:27.319Z,56.84
2019-03-17T08:39:57.951Z,56.19
2019-03-17T08:42:32.984Z,56.65
2019-03-17T08:45:04.044Z,56.60
2019-03-17T08:47:34.863Z,56.53
2019-03-17T08:50:05.814Z,55.91
2019-03-17T08:52:37.068Z,56.63
2019-03-17T08:55:07.780Z,55.29
2019-03-17T08:57:38.400Z,55.21
2019-03-17T09:00:10.675Z,54.73
2019-03-17T09:02:40.909Z,54.50
2019-03-17T09:05:11.301Z,55.54
2019-03-17T09:07:41.630Z,55.27
2019-03-17T09:10:12.346Z,54.23
2019-03-17T09:12:42.840Z,54.46
2019-03-17T09:15:13.350Z,55.04
2019-03-17T09:17:43.754Z,53.75
2019-03-17T09:20:14.098Z,52.86
2019-03-17T09:22:44.613Z,52.75
2019-03-17T09:25:15.279Z,54.44
2019-03-17T09:27:46.182Z,54.76
2019-03-17T09:30:16.909Z,54.82
2019-03-17T09:32:47.255Z,54.37
2019-03-17T09:35:17.854Z,54.13
2019-03-17T09:37:48.409Z,54.06
2019-03-17T09:40:19.327Z,54.46
2019-03-17T09:42:50.026Z,55.98
2019-03-17T09:45:20.440Z,56.39
2019-03-17T09:47:51.185Z,56.38
2019-03-17T09:50:21.559Z,56.59
2019-03-17T09:52:51.763Z,56.56
2019-03-17T09:55:22.475Z,56.44
2019-03-17T09:57:52.850Z,56.09
2019-03-17T10:00:23.113Z,56.04
2019-03-17T10:02:53.482Z,55.57
2019-03-17T10:05:24.089Z,55.81
2019-03-17T10:07:54.332Z,55.62
2019-03-17T10:10:25.198Z,55.23
2019-03-17T10:12:55.689Z,55.09
2019-03-17T10:15:26.088Z,55.26
2019-03-17T10:17:56.746Z,56.17
2019-03-17T10:20:27.264Z,56.21
2019-03-17T10:22:57.670Z,56.15
2019-03-17T10:25:29.195Z,56.58
2019-03-17T10:27:59.895Z,56.51
2019-03-17T10:30:30.352Z,57.11
2019-03-17T10:33:00.717Z,58.17
2019-03-17T10:35:31.181Z,57.79
2019-03-17T10:38:01.519Z,57.52
2019-03-17T10:40:31.983Z,57.32
2019-03-17T10:43:02.293Z,57.11
2019-03-17T10:45:33.349Z,57.90
2019-03-17T10:48:03.979Z,56.98
2019-03-17T10:50:34.340Z,57.27
2019-03-17T10:53:05.201Z,57.21
2019-03-17T10:55:37.120Z,57.99
2019-03-17T10:58:10.737Z,58.01
2019-03-17T11:00:45.590Z,58.47
2019-03-17T11:03:16.805Z,57.99
2019-03-17T11:05:47.356Z,58.09
2019-03-17T11:08:19.261Z,58.08
2019-03-17T11:10:55.330Z,58.26
2019-03-17T11:13:30.608Z,58.42
2019-03-17T11:16:05.488Z,58.96
2019-03-17T11:18:36.042Z,59.76
2019-03-17T11:21:07.489Z,59.60
2019-03-17T11:23:39.425Z,59.94
2019-03-17T11:26:10.261Z,59.72
2019-03-17T11:28:45.587Z,59.72
2019-03-17T11:31:16.199Z,59.78
2019-03-17T11:33:47.168Z,59.79
2019-03-17T11:36:17.868Z,61.67
2019-03-17T11:38:51.425Z,61.76
2019-03-17T11:41:23.303Z,63.15
2019-03-17T11:43:53.755Z,65.12
2019-03-17T11:46:24.348Z,68.05
2019-03-17T11:48:56.220Z,69.78
2019-03-17T11:51:29.413Z,71.00
2019-03-17T11:54:00.746Z,71.68
2019-03-17T11:56:31.343Z,71.96
2019-03-17T11:59:03.264Z,70.39
2019-03-17T12:01:34.335Z,70.27
2019-03-17T12:04:04.802Z,70.78
2019-03-17T12:06:36.429Z,69.06
2019-03-17T12:09:09.525Z,68.68
2019-03-17T12:11:40.595Z,66.46
2019-03-17T12:14:10.949Z,65.87
2019-03-17T12:16:41.646Z,64.63
2019-03-17T12:19:13.589Z,64.91
2019-03-17T12:21:44.267Z,65.96
2019-03-17T12:24:16.312Z,66.99
2019-03-17T12:26:46.636Z,66.70
2019-03-17T12:29:17.816Z,67.19
2019-03-17T12:31:48.245Z,68.15
2019-03-17T12:34:28.217Z,69.94
2019-03-17T12:36:52.584Z,68.71
2019-03-17T12:39:23.693Z,69.08
2019-03-17T12:41:55.069Z,69.87
2019-03-17T12:44:31.224Z,68.40
2019-03-17T12:47:02.138Z,66.85
2019-03-17T12:49:33.504Z,66.35
2019-03-17T12:52:05.196Z,64.00
2019-03-17T12:54:35.798Z,65.55
2019-03-17T12:57:06.541Z,66.12
2019-03-17T12:59:37.307Z,66.71
2019-03-17T13:02:08.379Z,74.43
2019-03-17T13:04:39.034Z,79.38
2019-03-17T13:07:10.316Z,82.08
2019-03-17T13:09:42.218Z,83.10
2019-03-17T13:12:12.900Z,84.00
2019-03-17T13:14:43.636Z,82.57
2019-03-17T13:17:14.481Z,82.71
2019-03-17T13:19:46.412Z,82.71
2019-03-17T13:22:19.263Z,83.54
2019-03-17T13:24:51.102Z,83.16
2019-03-17T13:27:23.355Z,83.16
2019-03-17T13:29:55.980Z,82.01
2019-03-17T13:32:27.244Z,80.95
2019-03-17T13:34:58.576Z,80.41
2019-03-17T13:37:29.308Z,77.58
2019-03-17T13:40:01.363Z,75.21
2019-03-17T13:42:34.036Z,75.81
2019-03-17T13:45:07.264Z,73.58
2019-03-17T13:47:43.616Z,73.58
2019-03-17T13:50:17.442Z,71.70
2019-03-17T13:52:48.209Z,72.14
2019-03-17T13:55:19.237Z,73.50
2019-03-17T13:57:51.942Z,72.19
2019-03-17T14:00:22.793Z,71.21
2019-03-17T14:02:54.353Z,69.97
2019-03-17T14:05:27.440Z,69.97
2019-03-17T14:08:00.467Z,69.67
2019-03-17T14:10:40.783Z,70.30
2019-03-17T14:13:06.644Z,70.30
2019-03-17T14:15:38.442Z,70.46
2019-03-17T14:18:17.263Z,68.49
2019-03-17T14:20:53.975Z,68.49
2019-03-17T14:23:25.614Z,69.48
2019-03-17T14:25:59.165Z,67.40
2019-03-17T14:28:31.570Z,68.86
2019-03-17T14:31:02.478Z,67.81
2019-03-17T14:33:34.661Z,66.51
2019-03-17T14:36:06.181Z,64.57
2019-03-17T14:38:39.258Z,65.43
2019-03-17T14:41:10.307Z,64.55
2019-03-17T14:43:48.460Z,63.84
2019-03-17T14:46:24.749Z,63.31
2019-03-17T14:48:57.506Z,64.07
2019-03-17T14:51:29.053Z,64.80
2019-03-17T14:53:59.723Z,63.08
2019-03-17T14:56:33.031Z,62.81
2019-03-17T14:59:04.000Z,62.82
2019-03-17T15:01:38.369Z,61.38
2019-03-17T15:04:10.241Z,61.41
2019-03-17T15:06:40.913Z,60.75
2019-03-17T15:09:12.389Z,61.82
2019-03-17T15:11:44.454Z,61.41
2019-03-17T15:14:14.876Z,63.30
2019-03-17T15:16:48.388Z,63.46
2019-03-17T15:19:19.503Z,63.64
2019-03-17T15:21:51.149Z,63.17
2019-03-17T15:24:26.174Z,64.68
2019-03-17T15:27:00.197Z,65.15
2019-03-17T15:29:30.944Z,64.84
2019-03-17T15:32:02.993Z,65.30
2019-03-17T15:34:37.656Z,65.30
2019-03-17T15:37:08.682Z,66.20
2019-03-17T15:39:41.696Z,66.36
2019-03-17T15:42:13.418Z,66.71
2019-03-17T15:44:43.938Z,66.83
2019-03-17T15:47:24.866Z,67.40
2019-03-17T15:49:55.518Z,67.40
2019-03-17T15:52:29.858Z,66.29
2019-03-17T15:55:10.209Z,65.90
2019-03-17T15:57:42.619Z,68.00
2019-03-17T16:00:25.397Z,66.23
2019-03-17T16:02:56.077Z,66.18
2019-03-17T16:05:33.483Z,65.84
2019-03-17T16:08:09.136Z,66.00
2019-03-17T16:10:46.470Z,66.93
2019-03-17T16:13:20.315Z,66.99
2019-03-17T16:15:50.980Z,66.90
2019-03-17T16:18:23.634Z,65.42
2019-03-17T16:21:00.180Z,66.11
2019-03-17T16:23:32.056Z,66.07
2019-03-17T16:26:10.573Z,65.92
2019-03-17T16:28:43.332Z,66.74
2019-03-17T16:31:15.170Z,67.29
2019-03-17T16:33:55.477Z,66.81
2019-03-17T16:36:29.473Z,66.58
2019-03-17T16:39:29.915Z,67.80
2019-03-17T16:42:02.177Z,67.80
2019-03-17T16:44:55.399Z,67.98
2019-03-17T16:47:28.469Z,67.99
2019-03-17T16:50:01.244Z,68.35
2019-03-17T16:52:45.822Z,69.27
2019-03-17T16:55:18.491Z,68.76
2019-03-17T16:57:51.617Z,68.76
2019-03-17T17:00:23.189Z,68.00
2019-03-17T17:02:56.336Z,68.51
2019-03-17T17:05:28.655Z,68.18
2019-03-17T17:07:59.776Z,69.91
2019-03-17T17:10:31.996Z,70.46
2019-03-17T17:13:03.389Z,71.21
2019-03-17T17:15:36.935Z,71.21
2019-03-17T17:18:12.417Z,72.75
2019-03-17T17:20:46.445Z,73.44
2019-03-17T17:23:17.257Z,76.11
2019-03-17T17:25:54.829Z,76.11
2019-03-17T17:28:25.518Z,79.24
2019-03-17T17:30:56.310Z,84.19
2019-03-17T17:33:28.034Z,86.01
2019-03-17T17:35:58.498Z,86.29
2019-03-17T17:38:29.777Z,86.10
2019-03-17T17:41:03.195Z,87.69
2019-03-17T17:43:34.849Z,87.09
2019-03-17T17:46:06.690Z,87.17
2019-03-17T17:48:37.714Z,88.07
2019-03-17T17:51:09.586Z,87.72
2019-03-17T17:53:43.408Z,88.38
2019-03-17T17:56:14.270Z,88.04
2019-03-17T17:58:45.347Z,87.96
2019-03-17T18:01:16.235Z,87.06
2019-03-17T18:03:51.761Z,86.51
2019-03-17T18:06:20.848Z,86.05
2019-03-17T18:08:51.409Z,85.74
2019-03-17T18:11:23.255Z,85.43
2019-03-17T18:13:54.242Z,85.46
2019-03-17T18:16:26.457Z,85.70
2019-03-17T18:18:57.974Z,85.34
2019-03-17T18:21:28.973Z,84.25
2019-03-17T18:24:01.123Z,83.57
2019-03-17T18:26:32.035Z,84.05
2019-03-17T18:29:02.939Z,83.78
2019-03-17T18:31:33.426Z,83.33
2019-03-17T18:34:06.045Z,83.66
2019-03-17T18:36:37.839Z,83.47
2019-03-17T18:39:09.425Z,83.66
2019-03-17T18:41:42.271Z,83.77
2019-03-17T18:44:13.747Z,83.93
2019-03-17T18:46:47.365Z,83.99
2019-03-17T18:49:20.360Z,83.96
2019-03-17T18:51:52.249Z,84.06
2019-03-17T18:54:22.826Z,84.15
2019-03-17T18:56:54.489Z,83.27
2019-03-17T18:59:28.527Z,83.52
2019-03-17T19:01:59.510Z,83.65
2019-03-17T19:04:37.886Z,83.46
2019-03-17T19:07:09.162Z,82.83
2019-03-17T19:09:43.340Z,83.42
2019-03-17T19:12:14.612Z,82.78
2019-03-17T19:14:48.324Z,82.96
2019-03-17T19:17:27.950Z,82.66
2019-03-17T19:20:13.383Z,81.83
2019-03-17T19:22:45.723Z,81.09
2019-03-17T19:25:55.661Z,80.67
2019-03-17T19:28:41.020Z,80.06
2019-03-17T19:31:12.834Z,79.33
2019-03-17T19:33:45.070Z,79.02
2019-03-17T19:36:31.068Z,78.94
2019-03-17T19:39:11.023Z,78.85
2019-03-17T19:41:45.528Z,79.35
2019-03-17T19:44:20.463Z,79.49
2019-03-17T19:46:55.432Z,79.04
2019-03-17T19:49:27.463Z,79.15
2019-03-17T19:52:00.184Z,79.31
2019-03-17T19:54:30.717Z,79.36
2019-03-17T19:57:01.191Z,79.84
2019-03-17T19:59:31.723Z,79.52
2019-03-17T20:02:02.129Z,79.97
2019-03-17T20:04:35.208Z,79.60
2019-03-17T20:07:08.242Z,79.78
2019-03-17T20:09:38.737Z,79.88
2019-03-17T20:12:09.307Z,80.32
2019-03-17T20:14:42.116Z,80.01
2019-03-17T20:17:12.192Z,80.10
2019-03-17T20:19:43.359Z,80.20
2019-03-17T20:22:14.177Z,80.49
2019-03-17T20:24:45.259Z,80.34
2019-03-17T20:27:16.349Z,80.61
2019-03-17T20:29:52.625Z,80.02
2019-03-17T20:32:24.098Z,79.76
2019-03-17T20:34:54.725Z,79.84
2019-03-17T20:37:25.580Z,79.61
2019-03-17T20:39:56.559Z,79.08
2019-03-17T20:42:27.338Z,79.12
2019-03-17T20:44:58.888Z,80.04
2019-03-17T20:47:30.881Z,78.53
2019-03-17T20:50:02.716Z,77.25
2019-03-17T20:52:33.515Z,76.32
2019-03-17T20:55:04.175Z,76.11
2019-03-17T20:57:35.200Z,76.28
2019-03-17T21:00:07.666Z,75.38
2019-03-17T21:02:37.979Z,75.17
2019-03-17T21:05:08.916Z,75.49
2019-03-17T21:07:39.874Z,75.47
2019-03-17T21:10:11.642Z,75.98
2019-03-17T21:12:42.399Z,76.50
2019-03-17T21:15:13.612Z,76.71
2019-03-17T21:17:44.959Z,77.65
2019-03-17T21:20:15.927Z,77.44
2019-03-17T21:22:46.314Z,77.91
2019-03-17T21:25:18.009Z,77.13
2019-03-17T21:27:48.289Z,76.52
2019-03-17T21:30:20.171Z,75.85
2019-03-17T21:32:50.740Z,75.12
2019-03-17T21:35:21.132Z,74.69
2019-03-17T21:37:51.539Z,74.00
2019-03-17T21:40:23.152Z,73.47
2019-03-17T21:42:53.430Z,73.81
2019-03-17T21:45:23.747Z,74.14
2019-03-17T21:47:54.325Z,73.88
2019-03-17T21:50:24.616Z,73.69
2019-03-17T21:52:56.091Z,74.36
2019-03-17T21:55:26.597Z,74.72
2019-03-17T21:57:57.210Z,74.26
2019-03-17T22:00:28.788Z,74.22
2019-03-17T22:03:00.534Z,74.72
2019-03-17T22:05:31.671Z,75.24
2019-03-17T22:08:02.078Z,75.36
2019-03-17T22:10:33.125Z,75.32
2019-03-17T22:13:03.898Z,75.34
2019-03-17T22:15:34.202Z,76.20
2019-03-17T22:18:04.904Z,75.91
2019-03-17T22:20:35.160Z,76.34
2019-03-17T22:23:05.507Z,76.28
2019-03-17T22:25:39.823Z,76.29
2019-03-17T22:28:10.127Z,76.16
2019-03-17T22:30:41.075Z,75.64
2019-03-17T22:33:11.327Z,76.66
2019-03-17T22:35:41.716Z,76.07
2019-03-17T22:38:12.425Z,76.56
2019-03-17T22:40:42.666Z,76.18
2019-03-17T22:43:16.089Z,75.54
2019-03-17T22:45:46.776Z,75.53
2019-03-17T22:48:16.927Z,75.80
2019-03-17T22:50:47.268Z,76.89
2019-03-17T22:53:18.688Z,76.37
2019-03-17T22:55:48.920Z,75.76
2019-03-17T22:58:19.258Z,76.31
2019-03-17T23:00:49.682Z,76.02
2019-03-17T23:03:21.205Z,76.42
2019-03-17T23:05:53.088Z,76.89
2019-03-17T23:08:23.928Z,76.68
2019-03-17T23:10:54.321Z,76.91
2019-03-17T23:13:24.814Z,77.37
2019-03-17T23:15:55.005Z,77.52
2019-03-17T23:18:25.196Z,78.00
2019-03-17T23:20:55.491Z,78.58
2019-03-17T23:23:26.744Z,78.79
2019-03-17T23:25:57.119Z,79.71
2019-03-17T23:28:28.858Z,79.63
2019-03-17T23:30:59.133Z,79.51
2019-03-17T23:33:29.301Z,79.88
2019-03-17T23:35:59.551Z,80.57
2019-03-17T23:38:30.112Z,79.90
2019-03-17T23:41:00.477Z,80.34
2019-03-17T23:43:32.109Z,80.18
2019-03-17T23:46:03.964Z,80.19
2019-03-17T23:48:34.139Z,79.19
2019-03-17T23:51:04.445Z,77.85
2019-03-17T23:53:35.034Z,77.23
2019-03-17T23:56:05.515Z,76.91
2019-03-17T23:58:35.738Z,75.87
